Time;durP1;ratioP1;P1;durP2;ratioP2;P2;SDS_P1;SDS_P2;PMS_P1;PMS_P2;Temp;Humidity;BMP_temperature;BMP_pressure;BME280_temperature;BME280_humidity;BME280_pressure;Samples;Min_cycle;Max_cycle;Signal;HPM_P1;HPM_P2
2021/07/01 00:00:57;;;;;;;;;;;;;;;24.04;65.30;96369.49;1782254;80;20144;-73
2021/07/01 00:03:24;;;;;;;;;;;;;;;24.01;65.52;96370.77;1774640;80;20296;-73
2021/07/01 00:05:50;;;;;;;;;;;;;;;23.94;65.71;96367.35;1809993;78;20106;-73
2021/07/01 00:08:18;;;;;;;;;;;;;;;23.86;65.24;96360.38;1783647;80;20120;-73
2021/07/01 00:10:44;;;;;;;;;;;;;;;23.82;65.46;96347.59;1795952;79;20200;-73
2021/07/01 00:13:10;;;;;;;;;;;;;;;23.77;64.94;96325.94;1788826;79;20461;-74
2021/07/01 00:15:36;;;;;;;;;;;;;;;23.72;64.91;96318.55;1799023;79;20533;-74
2021/07/01 00:18:03;;;;;;;;;;;;;;;23.66;65.05;96317.58;1770524;80;20400;-73
2021/07/01 00:20:30;;;;;;;;;;;;;;;23.63;65.38;96324.75;1791310;79;20196;-73
2021/07/01 00:22:57;;;;;;;;;;;;;;;23.59;64.98;96353.16;1794769;79;20172;-73
2021/07/01 00:25:23;;;;;;;;;;;;;;;23.54;62.64;96388.79;1765079;80;20131;-72
2021/07/01 00:27:51;;;;;;;;;;;;;;;23.52;64.58;96419.65;1770827;80;20093;-79
2021/07/01 00:30:19;;;;;;;;;;;;;;;23.44;64.40;96394.36;1775847;80;20483;-80
2021/07/01 00:32:47;;;;;;;;;;;;;;;23.38;64.99;96390.72;1793953;79;20167;-79
2021/07/01 00:35:13;;;;;;;;;;;;;;;23.38;64.61;96390.72;1797539;78;20179;-79
2021/07/01 00:37:40;;;;;;;;;;;;;;;23.43;63.76;96392.74;1776802;79;20116;-76
2021/07/01 00:40:09;;;;;;;;;;;;;;;23.47;63.84;96403.34;1778234;80;20120;-76
2021/07/01 00:42:36;;;;;;;;;;;;;;;23.45;62.34;96403.57;1783071;80;20460;-74
2021/07/01 00:45:05;;;;;;;;;;;;;;;23.46;61.22;96412.45;1783787;80;20215;-75
2021/07/01 00:47:32;;;;;;;;;;;;;;;23.36;60.56;96403.02;1766306;80;20157;-75
2021/07/01 00:49:59;;;;;;;;;;;;;;;23.21;60.99;96414.66;1778206;80;20147;-74
2021/07/01 00:52:26;;;;;;;;;;;;;;;22.88;61.78;96427.28;1774779;80;20160;-81
2021/07/01 00:54:52;;;;;;;;;;;;;;;22.40;62.38;96442.55;1792214;79;20102;-78
2021/07/01 00:57:18;;;;;;;;;;;;;;;21.93;64.55;96469.03;1795801;79;20183;-80
2021/07/01 00:59:45;;;;;;;;;;;;;;;21.53;65.62;96486.00;1734614;80;20088;-80
2021/07/01 01:02:11;;;;;;;;;;;;;;;21.21;65.60;96531.88;1779373;79;20170;-74
2021/07/01 01:04:37;;;;;;;;;;;;;;;20.93;67.03;96563.66;1779872;80;20123;-73
2021/07/01 01:07:04;;;;;;;;;;;;;;;20.70;66.55;96612.17;1778289;80;20104;-74
2021/07/01 01:09:30;;;;;;;;;;;;;;;20.50;66.86;96638.85;1775290;80;20214;-76
2021/07/01 01:11:57;;;;;;;;;;;;;;;20.37;66.99;96673.06;1775415;80;20163;-73
2021/07/01 01:14:25;;;;;;;;;;;;;;;20.28;66.80;96697.27;1780032;80;20155;-73
2021/07/01 01:16:56;;;;;;;;;;;;;;;20.21;68.11;96714.31;1793315;79;20157;-75
2021/07/01 01:19:22;;;;;;;;;;;;;;;20.17;67.10;96719.72;1783873;80;20250;-74
2021/07/01 01:21:49;;;;;;;;;;;;;;;20.16;70.57;96709.55;1808194;78;20130;-73
2021/07/01 01:24:16;;;;;;;;;;;;;;;20.14;70.07;96683.48;1765018;80;20141;-73
2021/07/01 01:26:43;;;;;;;;;;;;;;;20.08;69.76;96693.64;1784642;80;20096;-74
2021/07/01 01:29:09;;;;;;;;;;;;;;;20.03;67.51;96684.85;1776747;80;20535;-74
2021/07/01 01:31:37;;;;;;;;;;;;;;;19.99;70.24;96696.13;1779118;80;20174;-73
2021/07/01 01:34:04;;;;;;;;;;;;;;;19.91;69.91;96697.89;1782269;80;20092;-74
2021/07/01 01:36:31;;;;;;;;;;;;;;;19.83;69.54;96704.69;1789254;79;20158;-75
2021/07/01 01:38:57;;;;;;;;;;;;;;;19.69;70.16;96693.04;1792356;79;20148;-74
2021/07/01 01:41:29;;;;;;;;;;;;;;;19.57;70.03;96689.23;1778364;80;20104;-73
2021/07/01 01:43:56;;;;;;;;;;;;;;;19.50;70.62;96696.66;1779424;80;20097;-75
2021/07/01 01:46:22;;;;;;;;;;;;;;;19.46;71.16;96693.22;1779096;80;20632;-73
2021/07/01 01:48:53;;;;;;;;;;;;;;;19.44;71.00;96696.09;1749141;80;20144;-73
2021/07/01 01:51:20;;;;;;;;;;;;;;;19.41;71.69;96713.83;1774639;80;20162;-75
2021/07/01 01:53:46;;;;;;;;;;;;;;;19.34;72.01;96711.11;1767782;80;20431;-75
2021/07/01 01:56:12;;;;;;;;;;;;;;;19.30;71.89;96709.00;1816641;79;20876;-74
2021/07/01 01:58:40;;;;;;;;;;;;;;;19.27;72.38;96709.36;1807120;79;20479;-76
2021/07/01 02:01:25;;;;;;;;;;;;;;;19.24;71.76;96709.73;1797641;79;20097;-74
2021/07/01 02:03:51;;;;;;;;;;;;;;;19.20;71.77;96709.28;1812777;79;20212;-76
2021/07/01 02:06:19;;;;;;;;;;;;;;;19.22;73.26;96708.59;1798799;79;20128;-73
2021/07/01 02:08:46;;;;;;;;;;;;;;;19.28;72.10;96715.84;1802461;79;20194;-73
2021/07/01 02:11:12;;;;;;;;;;;;;;;19.28;72.41;96698.48;1807818;79;20173;-74
2021/07/01 02:13:40;;;;;;;;;;;;;;;19.29;72.23;96689.97;1811051;79;20326;-75
2021/07/01 02:16:11;;;;;;;;;;;;;;;19.30;71.98;96679.61;1764331;80;20124;-74
2021/07/01 02:18:37;;;;;;;;;;;;;;;19.26;72.62;96657.75;1790817;79;20532;-75
2021/07/01 02:21:04;;;;;;;;;;;;;;;19.19;72.90;96669.73;1787614;79;20123;-75
2021/07/01 02:23:32;;;;;;;;;;;;;;;19.16;72.22;96657.26;1784153;79;20126;-76
2021/07/01 02:26:02;;;;;;;;;;;;;;;19.15;73.49;96636.38;1780555;80;20421;-77
2021/07/01 02:28:28;;;;;;;;;;;;;;;19.16;72.46;96609.98;1758862;80;20108;-76
2021/07/01 02:31:14;;;;;;;;;;;;;;;19.11;74.94;96596.88;1796554;79;20123;-75
2021/07/01 02:33:42;;;;;;;;;;;;;;;19.04;72.67;96566.94;1799017;79;20123;-77
2021/07/01 02:36:09;;;;;;;;;;;;;;;19.04;73.11;96548.73;1817963;79;20106;-76
2021/07/01 02:38:53;;;;;;;;;;;;;;;18.89;72.71;96523.39;1811801;78;20125;-76
2021/07/01 02:41:19;;;;;;;;;;;;;;;18.78;72.62;96498.55;1806546;78;20197;-77
2021/07/01 02:43:47;;;;;;;;;;;;;;;18.67;75.15;96478.50;1797594;78;20182;-77
2021/07/01 02:46:16;;;;;;;;;;;;;;;18.41;77.25;96446.03;1800217;79;20113;-76
2021/07/01 02:48:44;;;;;;;;;;;;;;;18.22;78.37;96430.62;1805118;78;20208;-77
2021/07/01 02:51:12;;;;;;;;;;;;;;;18.06;78.93;96423.16;1808812;79;20415;-77
2021/07/01 02:53:40;;;;;;;;;;;;;;;17.97;77.84;96457.59;1810152;78;20215;-77
2021/07/01 02:56:06;;;;;;;;;;;;;;;17.98;77.52;96504.58;1806233;79;20188;-76
2021/07/01 02:58:33;;;;;;;;;;;;;;;18.05;77.00;96540.16;1799901;79;20166;-77
2021/07/01 03:01:07;;;;;;;;;;;;;;;18.14;77.47;96543.56;1764691;78;20180;-77
2021/07/01 03:03:34;;;;;;;;;;;;;;;18.24;77.11;96544.61;1802613;79;20157;-77
2021/07/01 03:06:02;;;;;;;;;;;;;;;18.33;75.42;96546.16;1807519;78;20219;-77
2021/07/01 03:08:30;;;;;;;;;;;;;;;18.44;76.79;96527.53;1819067;78;20175;-77
2021/07/01 03:10:56;;;;;;;;;;;;;;;18.54;76.99;96528.07;1810727;79;20138;-77
2021/07/01 03:13:22;;;;;;;;;;;;;;;18.58;75.13;96540.53;1808305;78;20110;-77
2021/07/01 03:15:48;;;;;;;;;;;;;;;18.61;75.79;96559.33;1768832;80;20459;-77
2021/07/01 03:18:15;;;;;;;;;;;;;;;18.65;75.79;96554.77;1784454;80;20151;-77
2021/07/01 03:20:51;;;;;;;;;;;;;;;18.66;76.04;96565.77;1776227;80;20217;-78
2021/07/01 03:23:22;;;;;;;;;;;;;;;18.69;75.78;96569.41;1803770;78;20158;-78
2021/07/01 03:25:48;;;;;;;;;;;;;;;18.77;76.41;96576.45;1812777;79;20439;-77
2021/07/01 03:28:14;;;;;;;;;;;;;;;18.86;75.57;96582.52;1773383;80;20389;-79
2021/07/01 03:30:42;;;;;;;;;;;;;;;18.94;76.03;96593.12;1814943;79;20384;-78
2021/07/01 03:33:08;;;;;;;;;;;;;;;19.01;75.34;96588.67;1784169;80;20124;-77
2021/07/01 03:35:36;;;;;;;;;;;;;;;19.02;75.57;96590.84;1791649;79;20191;-77
2021/07/01 03:38:13;;;;;;;;;;;;;;;18.99;75.79;96590.70;1748353;81;20118;-78
2021/07/01 03:40:47;;;;;;;;;;;;;;;19.02;75.13;96595.67;1728911;80;20401;-74
2021/07/01 03:43:14;;;;;;;;;;;;;;;19.09;75.63;96602.91;1783320;79;20413;-77
2021/07/01 03:45:41;;;;;;;;;;;;;;;19.13;74.79;96606.88;1763075;80;20432;-77
2021/07/01 03:48:08;;;;;;;;;;;;;;;19.12;74.89;96610.56;1795154;79;20094;-77
2021/07/01 03:50:35;;;;;;;;;;;;;;;19.06;74.83;96612.66;1811302;79;20078;-78
2021/07/01 03:53:03;;;;;;;;;;;;;;;18.97;76.17;96615.45;1823763;79;20144;-82
2021/07/01 03:55:32;;;;;;;;;;;;;;;18.83;78.01;96622.94;1821778;78;20118;-87
2021/07/01 03:57:59;;;;;;;;;;;;;;;18.81;76.56;96623.63;1807442;78;20118;-79
2021/07/01 04:00:26;;;;;;;;;;;;;;;18.74;77.52;96630.24;1801874;79;20118;-86
2021/07/01 04:02:54;;;;;;;;;;;;;;;18.79;77.14;96635.02;1804478;79;20142;-75
2021/07/01 04:05:22;;;;;;;;;;;;;;;18.79;77.93;96657.19;1775160;80;20431;-82
2021/07/01 04:07:50;;;;;;;;;;;;;;;18.82;78.25;96663.99;1782736;80;20189;-78
2021/07/01 04:10:19;;;;;;;;;;;;;;;18.84;77.37;96676.66;1766808;80;20318;-85
2021/07/01 04:12:49;;;;;;;;;;;;;;;18.85;77.48;96684.99;1789408;78;20196;-78
2021/07/01 04:15:34;;;;;;;;;;;;;;;18.92;77.59;96685.08;1804606;78;20167;-80
2021/07/01 04:18:19;;;;;;;;;;;;;;;18.96;77.65;96690.39;1792887;79;20104;-78
2021/07/01 04:21:04;;;;;;;;;;;;;;;18.97;77.77;96700.06;1789917;79;20202;-86
2021/07/01 04:23:51;;;;;;;;;;;;;;;19.01;78.33;96696.83;1769641;79;20132;-75
2021/07/01 04:26:37;;;;;;;;;;;;;;;19.02;77.72;96694.48;1790955;79;20132;-75
2021/07/01 04:29:10;;;;;;;;;;;;;;;18.99;77.30;96692.17;1767868;80;20128;-76
2021/07/01 04:31:36;;;;;;;;;;;;;;;18.97;76.92;96697.39;1816589;78;20142;-74
2021/07/01 04:34:04;;;;;;;;;;;;;;;18.98;77.01;96685.70;1806309;78;20394;-76
2021/07/01 04:36:30;;;;;;;;;;;;;;;19.02;76.23;96688.33;1810972;78;20101;-75
2021/07/01 04:38:57;;;;;;;;;;;;;;;19.03;76.07;96698.81;1788246;78;20409;-74
2021/07/01 04:41:24;;;;;;;;;;;;;;;18.99;75.89;96704.19;1802606;78;20152;-75
2021/07/01 04:43:53;;;;;;;;;;;;;;;19.07;75.83;96706.47;1792170;79;20090;-74
2021/07/01 04:46:22;;;;;;;;;;;;;;;19.22;75.38;96719.28;1796092;79;20150;-76
2021/07/01 04:48:51;;;;;;;;;;;;;;;19.32;75.37;96721.14;1795392;79;20094;-78
2021/07/01 04:51:18;;;;;;;;;;;;;;;19.49;75.30;96717.72;1767472;80;20171;-82
2021/07/01 04:53:58;;;;;;;;;;;;;;;19.76;74.75;96715.34;1781910;80;20450;-81
2021/07/01 04:56:43;;;;;;;;;;;;;;;20.12;75.16;96720.30;1816958;78;20097;-88
2021/07/01 04:59:19;;;;;;;;;;;;;;;20.37;73.43;96724.72;1817095;78;20106;-73
2021/07/01 05:01:48;;;;;;;;;;;;;;;20.48;71.85;96728.70;1781833;79;20383;-79
2021/07/01 05:04:32;;;;;;;;;;;;;;;20.52;71.78;96725.13;1792290;79;20120;-74
2021/07/01 05:06:58;;;;;;;;;;;;;;;20.66;71.36;96730.05;1797887;79;20164;-76
2021/07/01 05:09:25;;;;;;;;;;;;;;;20.81;70.52;96728.13;1796873;79;20091;-76
2021/07/01 05:11:52;;;;;;;;;;;;;;;21.04;69.74;96737.22;1806203;79;20396;-78
2021/07/01 05:14:19;;;;;;;;;;;;;;;21.15;70.62;96734.48;1800529;79;20107;-76
2021/07/01 05:16:47;;;;;;;;;;;;;;;21.45;69.86;96733.34;1776604;79;20194;-72
2021/07/01 05:19:14;;;;;;;;;;;;;;;21.77;67.59;96735.02;1807805;79;20129;-76
2021/07/01 05:21:52;;;;;;;;;;;;;;;21.90;63.83;96726.16;1790269;79;20467;-76
2021/07/01 05:24:36;;;;;;;;;;;;;;;22.26;64.75;96725.78;1768057;80;20106;-79
2021/07/01 05:27:21;;;;;;;;;;;;;;;22.77;65.52;96738.24;1799269;79;20121;-78
2021/07/01 05:30:06;;;;;;;;;;;;;;;23.07;61.24;96741.79;1800630;79;20392;-76
2021/07/01 05:32:51;;;;;;;;;;;;;;;23.29;58.01;96751.77;1796946;79;20104;-78
2021/07/01 05:35:19;;;;;;;;;;;;;;;23.52;61.04;96745.87;1800683;79;20456;-76
2021/07/01 05:37:47;;;;;;;;;;;;;;;23.90;62.31;96754.97;1790729;79;20153;-76
2021/07/01 05:40:15;;;;;;;;;;;;;;;24.55;59.36;96750.38;1805408;79;20132;-75
2021/07/01 05:42:43;;;;;;;;;;;;;;;24.69;60.21;96752.46;1809842;79;20094;-76
2021/07/01 05:45:09;;;;;;;;;;;;;;;24.59;57.89;96760.50;1808125;78;20411;-76
2021/07/01 05:47:36;;;;;;;;;;;;;;;24.29;55.91;96749.03;1813210;79;20575;-77
2021/07/01 05:50:04;;;;;;;;;;;;;;;24.10;57.74;96750.84;1791697;79;20404;-77
2021/07/01 05:52:33;;;;;;;;;;;;;;;24.01;58.78;96749.46;1798035;79;20137;-76
2021/07/01 05:54:59;;;;;;;;;;;;;;;23.98;56.29;96746.69;1809998;79;20127;-76
2021/07/01 05:57:28;;;;;;;;;;;;;;;24.39;58.56;96743.17;1787050;79;20234;-78
2021/07/01 05:59:55;;;;;;;;;;;;;;;25.18;59.30;96736.39;1795629;79;20101;-75
2021/07/01 06:02:23;;;;;;;;;;;;;;;25.93;54.54;96741.16;1804220;79;20103;-77
2021/07/01 06:04:50;;;;;;;;;;;;;;;26.48;52.47;96735.54;1791975;79;20096;-78
2021/07/01 06:07:35;;;;;;;;;;;;;;;26.98;55.50;96738.02;1787450;79;20127;-78
2021/07/01 06:10:06;;;;;;;;;;;;;;;27.51;53.92;96749.15;1792143;79;20093;-77
2021/07/01 06:12:33;;;;;;;;;;;;;;;27.76;56.54;96738.51;1794460;79;20152;-77
2021/07/01 06:15:01;;;;;;;;;;;;;;;27.79;49.70;96733.16;1788227;79;20118;-75
2021/07/01 06:17:30;;;;;;;;;;;;;;;27.41;51.33;96733.52;1804503;79;20408;-76
2021/07/01 06:19:57;;;;;;;;;;;;;;;27.33;50.69;96720.33;1758885;80;20462;-77
2021/07/01 06:22:23;;;;;;;;;;;;;;;27.32;49.07;96717.36;1774922;79;20150;-77
2021/07/01 06:24:55;;;;;;;;;;;;;;;27.77;51.52;96714.44;1786882;79;20370;-74
2021/07/01 06:27:32;;;;;;;;;;;;;;;27.99;48.65;96713.74;1777724;79;20090;-75
2021/07/01 06:29:51;;;;;;;;;;;;;;;28.31;46.90;96697.77;1775832;80;20101;-75
2021/07/01 06:32:18;;;;;;;;;;;;;;;28.75;44.99;96703.04;1765405;80;20103;-77
2021/07/01 06:34:44;;;;;;;;;;;;;;;29.25;46.54;96703.44;1783156;80;20138;-79
2021/07/01 06:37:12;;;;;;;;;;;;;;;29.83;50.77;96702.16;1783564;80;20082;-78
2021/07/01 06:39:58;;;;;;;;;;;;;;;30.22;45.09;96691.94;1781717;79;20124;-74
2021/07/01 06:42:47;;;;;;;;;;;;;;;30.44;47.18;96685.58;1775600;80;20385;-76
2021/07/01 06:45:33;;;;;;;;;;;;;;;30.79;44.99;96675.22;1775397;80;20215;-75
2021/07/01 06:48:20;;;;;;;;;;;;;;;30.92;44.69;96668.48;1780346;80;20150;-75
2021/07/01 06:51:06;;;;;;;;;;;;;;;31.31;47.11;96664.84;1738303;81;20135;-77
2021/07/01 06:53:43;;;;;;;;;;;;;;;31.11;45.30;96662.88;1722323;80;20161;-77
2021/07/01 06:56:23;;;;;;;;;;;;;;;30.03;44.53;96666.23;1765458;79;20093;-75
2021/07/01 06:58:50;;;;;;;;;;;;;;;29.75;42.13;96661.34;1786457;80;20403;-74
2021/07/01 07:01:18;;;;;;;;;;;;;;;29.85;41.56;96667.42;1781651;79;20102;-76
2021/07/01 07:03:45;;;;;;;;;;;;;;;30.04;45.48;96671.95;1791860;79;20102;-77
2021/07/01 07:06:11;;;;;;;;;;;;;;;30.45;48.49;96679.06;1794471;79;20087;-76
2021/07/01 07:08:38;;;;;;;;;;;;;;;30.72;43.83;96664.57;1769388;79;20097;-77
2021/07/01 07:11:05;;;;;;;;;;;;;;;30.88;49.78;96658.67;1743609;80;20143;-76
2021/07/01 07:13:31;;;;;;;;;;;;;;;31.15;43.81;96650.92;1768262;80;20163;-78
2021/07/01 07:16:00;;;;;;;;;;;;;;;31.17;51.48;96644.67;1775313;80;20124;-77
2021/07/01 07:18:30;;;;;;;;;;;;;;;30.96;46.97;96647.81;1747222;80;20104;-77
2021/07/01 07:20:59;;;;;;;;;;;;;;;30.62;43.36;96648.20;1770164;80;20120;-78
2021/07/01 07:23:32;;;;;;;;;;;;;;;30.65;44.23;96650.40;1748965;80;20110;-76
2021/07/01 07:26:01;;;;;;;;;;;;;;;31.09;45.61;96641.08;1644790;84;20136;-78
2021/07/01 07:28:27;;;;;;;;;;;;;;;31.57;45.64;96630.86;1665242;85;20116;-76
2021/07/01 07:30:56;;;;;;;;;;;;;;;32.02;40.93;96612.13;1657485;85;20141;-77
2021/07/01 07:33:28;;;;;;;;;;;;;;;32.27;41.26;96603.66;1662096;85;20175;-78
2021/07/01 07:35:55;;;;;;;;;;;;;;;32.43;44.79;96588.09;1682618;84;20099;-78
2021/07/01 07:38:24;;;;;;;;;;;;;;;32.59;40.93;96575.23;1713938;83;20174;-77
2021/07/01 07:40:52;;;;;;;;;;;;;;;32.83;46.16;96574.61;1712868;83;20179;-76
2021/07/01 07:43:20;;;;;;;;;;;;;;;32.92;45.71;96572.92;1713800;83;20119;-76
2021/07/01 07:45:49;;;;;;;;;;;;;;;32.60;45.45;96579.59;1714599;83;20108;-78
2021/07/01 07:48:15;;;;;;;;;;;;;;;32.53;49.21;96577.69;1707827;83;20130;-76
2021/07/01 07:50:45;;;;;;;;;;;;;;;32.42;37.54;96577.47;1708751;83;20098;-76
2021/07/01 07:53:15;;;;;;;;;;;;;;;32.35;42.03;96581.28;1691495;84;20127;-76
2021/07/01 07:55:42;;;;;;;;;;;;;;;32.37;42.96;96578.30;1713686;83;20176;-74
2021/07/01 07:58:11;;;;;;;;;;;;;;;32.77;51.09;96578.43;1714863;83;20136;-76
2021/07/01 08:00:38;;;;;;;;;;;;;;;33.16;38.58;96575.00;1686249;83;20491;-75
2021/07/01 08:03:06;;;;;;;;;;;;;;;33.13;43.01;96583.73;1738877;80;20125;-77
2021/07/01 08:05:33;;;;;;;;;;;;;;;33.29;42.70;96578.45;1812244;79;20105;-76
2021/07/01 08:08:01;;;;;;;;;;;;;;;33.56;41.68;96577.77;1783514;80;20114;-75
2021/07/01 08:10:31;;;;;;;;;;;;;;;33.82;46.03;96577.02;1764261;79;20117;-75
2021/07/01 08:13:07;;;;;;;;;;;;;;;33.78;39.19;96586.31;1776331;80;20097;-76
2021/07/01 08:15:39;;;;;;;;;;;;;;;33.76;42.56;96584.97;1770456;80;20155;-77
2021/07/01 08:18:07;;;;;;;;;;;;;;;33.65;39.03;96581.52;1769724;80;20160;-76
2021/07/01 08:20:35;;;;;;;;;;;;;;;33.31;47.70;96577.63;1762843;81;20085;-75
2021/07/01 08:23:02;;;;;;;;;;;;;;;32.63;37.59;96574.92;1758731;80;20096;-76
2021/07/01 08:25:30;;;;;;;;;;;;;;;32.64;44.58;96576.56;1766567;80;20173;-73
2021/07/01 08:27:57;;;;;;;;;;;;;;;32.47;47.81;96566.53;1776751;80;20085;-73
2021/07/01 08:30:25;;;;;;;;;;;;;;;31.95;41.02;96569.88;1761920;80;20120;-73
2021/07/01 08:32:59;;;;;;;;;;;;;;;31.15;42.21;96570.64;1772742;80;20231;-74
2021/07/01 08:35:28;;;;;;;;;;;;;;;30.68;38.04;96568.27;1779205;80;20119;-74
2021/07/01 08:38:01;;;;;;;;;;;;;;;30.32;39.99;96576.22;1765345;80;20119;-74
2021/07/01 08:40:34;;;;;;;;;;;;;;;30.08;42.33;96569.84;1756465;82;20094;-74
2021/07/01 08:43:03;;;;;;;;;;;;;;;30.13;44.54;96566.34;1774780;80;20093;-75
2021/07/01 08:45:39;;;;;;;;;;;;;;;30.13;41.53;96564.98;1747726;80;20195;-75
2021/07/01 08:48:12;;;;;;;;;;;;;;;29.57;39.01;96562.09;1784979;80;20108;-75
2021/07/01 08:50:40;;;;;;;;;;;;;;;29.44;41.17;96564.70;1760697;80;20097;-73
2021/07/01 08:53:16;;;;;;;;;;;;;;;29.32;40.50;96559.45;1756470;80;20160;-75
2021/07/01 08:55:46;;;;;;;;;;;;;;;29.52;43.07;96557.97;1771869;80;20173;-77
2021/07/01 08:58:14;;;;;;;;;;;;;;;29.78;42.11;96556.29;1767605;80;20395;-76
2021/07/01 09:00:42;;;;;;;;;;;;;;;29.75;40.36;96544.58;1724757;82;20131;-76
2021/07/01 09:03:10;;;;;;;;;;;;;;;29.96;42.16;96550.19;1776960;80;20436;-76
2021/07/01 09:05:38;;;;;;;;;;;;;;;30.04;41.47;96548.34;1784085;80;20402;-75
2021/07/01 09:08:13;;;;;;;;;;;;;;;30.07;43.27;96551.91;1780804;80;20230;-75
2021/07/01 09:10:51;;;;;;;;;;;;;;;30.08;45.63;96548.11;1754374;80;20132;-75
2021/07/01 09:13:20;;;;;;;;;;;;;;;30.28;44.78;96550.12;1769417;80;20100;-76
2021/07/01 09:15:48;;;;;;;;;;;;;;;30.50;42.54;96547.23;1785427;80;20124;-75
2021/07/01 09:18:16;;;;;;;;;;;;;;;30.48;42.24;96549.42;1752073;80;20107;-77
2021/07/01 09:20:44;;;;;;;;;;;;;;;30.27;41.52;96543.04;1751799;80;20135;-77
2021/07/01 09:23:12;;;;;;;;;;;;;;;30.21;43.57;96544.91;1725077;82;20422;-75
2021/07/01 09:25:41;;;;;;;;;;;;;;;29.76;42.22;96542.14;1743201;82;20113;-76
2021/07/01 09:28:08;;;;;;;;;;;;;;;29.61;42.04;96544.20;1735289;82;20383;-75
2021/07/01 09:30:35;;;;;;;;;;;;;;;29.69;41.00;96543.75;1723131;82;20426;-73
2021/07/01 09:33:04;;;;;;;;;;;;;;;29.83;41.81;96546.00;1726740;82;20138;-74
2021/07/01 09:35:33;;;;;;;;;;;;;;;30.06;45.82;96531.24;1748497;80;20108;-74
2021/07/01 09:38:04;;;;;;;;;;;;;;;30.30;42.25;96541.72;1755872;80;20131;-73
2021/07/01 09:40:33;;;;;;;;;;;;;;;30.39;42.77;96538.77;1747879;81;20103;-73
2021/07/01 09:43:03;;;;;;;;;;;;;;;30.29;42.59;96536.00;1770375;80;20543;-74
2021/07/01 09:45:33;;;;;;;;;;;;;;;30.21;42.57;96535.39;1768862;80;20109;-73
2021/07/01 09:48:12;;;;;;;;;;;;;;;29.86;40.23;96531.36;1763251;80;20401;-73
2021/07/01 09:50:49;;;;;;;;;;;;;;;29.66;44.18;96527.13;1737328;82;20113;-73
2021/07/01 09:53:30;;;;;;;;;;;;;;;29.47;43.03;96528.08;1724384;81;20109;-75
2021/07/01 09:56:00;;;;;;;;;;;;;;;29.47;43.91;96527.53;1772853;80;20106;-73
2021/07/01 09:58:29;;;;;;;;;;;;;;;29.58;44.09;96521.11;1782224;80;20103;-74
2021/07/01 10:00:57;;;;;;;;;;;;;;;29.69;43.32;96522.02;1781571;80;20157;-73
2021/07/01 10:03:24;;;;;;;;;;;;;;;29.75;46.90;96527.77;1783176;80;20190;-73
2021/07/01 10:05:50;;;;;;;;;;;;;;;29.62;40.84;96517.33;1775792;80;20113;-74
2021/07/01 10:08:18;;;;;;;;;;;;;;;29.58;42.86;96511.61;1788910;80;20150;-74
2021/07/01 10:10:50;;;;;;;;;;;;;;;29.63;44.66;96518.97;1789746;80;20134;-72
2021/07/01 10:13:19;;;;;;;;;;;;;;;29.80;46.33;96527.50;1784489;80;20106;-74
2021/07/01 10:15:48;;;;;;;;;;;;;;;29.99;44.92;96525.23;1736959;80;20458;-74
2021/07/01 10:18:17;;;;;;;;;;;;;;;30.22;43.60;96518.02;1754557;80;20434;-74
2021/07/01 10:20:53;;;;;;;;;;;;;;;30.34;43.55;96522.42;1780608;80;20125;-75
2021/07/01 10:23:26;;;;;;;;;;;;;;;30.39;46.09;96525.19;1777771;80;20127;-75
2021/07/01 10:25:56;;;;;;;;;;;;;;;30.22;45.77;96518.02;1770093;80;20374;-74
2021/07/01 10:28:24;;;;;;;;;;;;;;;30.01;50.40;96522.52;1768806;80;20129;-73
2021/07/01 10:31:11;;;;;;;;;;;;;;;29.47;46.94;96512.59;1761819;80;20093;-73
2021/07/01 10:33:39;;;;;;;;;;;;;;;29.15;48.95;96514.75;1767852;80;20187;-74
2021/07/01 10:36:09;;;;;;;;;;;;;;;29.13;47.99;96519.61;1770436;80;20128;-74
2021/07/01 10:38:53;;;;;;;;;;;;;;;29.36;49.64;96515.77;1776795;80;20169;-75
2021/07/01 10:41:27;;;;;;;;;;;;;;;29.47;50.03;96505.81;1779733;80;20113;-73
2021/07/01 10:43:54;;;;;;;;;;;;;;;29.40;48.24;96495.72;1761353;80;20120;-72
2021/07/01 10:46:21;;;;;;;;;;;;;;;29.23;46.96;96503.42;1781008;80;20122;-74
2021/07/01 10:48:56;;;;;;;;;;;;;;;29.07;47.90;96502.45;1777197;80;20088;-74
2021/07/01 10:51:27;;;;;;;;;;;;;;;28.97;45.40;96505.91;1773040;80;20386;-74
2021/07/01 10:53:55;;;;;;;;;;;;;;;29.02;48.59;96513.80;1737240;82;20099;-74
2021/07/01 10:56:41;;;;;;;;;;;;;;;29.14;45.65;96509.04;1705997;80;20447;-75
2021/07/01 10:59:10;;;;;;;;;;;;;;;29.34;44.46;96514.41;1754362;80;20144;-74
2021/07/01 11:01:45;;;;;;;;;;;;;;;29.26;43.91;96517.84;1764345;80;20397;-75
2021/07/01 11:04:19;;;;;;;;;;;;;;;29.37;43.98;96517.97;1771799;80;20112;-74
2021/07/01 11:07:00;;;;;;;;;;;;;;;29.49;44.03;96513.72;1751420;80;20095;-74
2021/07/01 11:09:43;;;;;;;;;;;;;;;29.69;43.88;96507.09;1771759;80;20168;-71
2021/07/01 11:12:12;;;;;;;;;;;;;;;29.90;41.90;96509.92;1802682;79;20095;-74
2021/07/01 11:14:44;;;;;;;;;;;;;;;29.78;41.89;96514.20;1805589;79;20134;-72
2021/07/01 11:17:11;;;;;;;;;;;;;;;29.58;43.69;96507.53;1766779;81;20141;-74
2021/07/01 11:19:45;;;;;;;;;;;;;;;29.49;43.50;96515.08;1771231;80;20148;-73
2021/07/01 11:22:14;;;;;;;;;;;;;;;29.34;41.43;96517.92;1789158;80;20156;-75
2021/07/01 11:24:44;;;;;;;;;;;;;;;28.81;41.56;96502.77;1786806;79;20442;-74
2021/07/01 11:27:12;;;;;;;;;;;;;;;28.70;42.55;96513.17;1769093;80;20124;-73
2021/07/01 11:29:42;;;;;;;;;;;;;;;28.39;42.26;96485.19;1789617;80;20132;-73
2021/07/01 11:32:18;;;;;;;;;;;;;;;28.35;42.51;96492.97;1791008;80;20096;-75
2021/07/01 11:34:47;;;;;;;;;;;;;;;28.38;42.96;96493.55;1765458;80;20096;-73
2021/07/01 11:37:15;;;;;;;;;;;;;;;28.58;42.46;96489.73;1759542;80;20158;-76
2021/07/01 11:39:43;;;;;;;;;;;;;;;28.86;42.21;96488.44;1771572;79;20119;-74
2021/07/01 11:42:10;;;;;;;;;;;;;;;29.07;42.45;96494.87;1793870;79;20123;-74
2021/07/01 11:44:42;;;;;;;;;;;;;;;29.21;42.11;96487.94;1785247;79;20128;-73
2021/07/01 11:47:09;;;;;;;;;;;;;;;29.33;41.54;96497.28;1783428;80;20306;-72
2021/07/01 11:49:36;;;;;;;;;;;;;;;29.32;41.91;96498.39;1779084;80;20096;-73
2021/07/01 11:52:03;;;;;;;;;;;;;;;29.30;41.69;96504.58;1782089;80;20112;-74
2021/07/01 11:54:29;;;;;;;;;;;;;;;29.10;41.00;96487.55;1777319;80;20152;-75
2021/07/01 11:56:59;;;;;;;;;;;;;;;29.02;41.43;96487.50;1786583;80;20102;-75
2021/07/01 11:59:27;;;;;;;;;;;;;;;29.04;40.48;96498.09;1790265;80;20392;-74
2021/07/01 12:01:55;;;;;;;;;;;;;;;28.88;39.90;96494.40;1786228;80;20154;-75
2021/07/01 12:04:36;;;;;;;;;;;;;;;28.77;38.22;96509.75;1792303;79;20134;-74
2021/07/01 12:07:18;;;;;;;;;;;;;;;28.70;38.40;96508.55;1791013;79;20123;-73
2021/07/01 12:09:46;;;;;;;;;;;;;;;28.39;38.79;96514.98;1792932;79;20175;-75
2021/07/01 12:12:15;;;;;;;;;;;;;;;28.14;39.96;96528.47;1787783;79;20099;-75
2021/07/01 12:14:48;;;;;;;;;;;;;;;28.00;40.96;96543.41;1791034;79;20397;-75
2021/07/01 12:17:35;;;;;;;;;;;;;;;27.80;42.20;96577.23;1775536;80;20117;-75
2021/07/01 12:20:03;;;;;;;;;;;;;;;27.19;55.68;96629.72;1760233;80;20096;-73
2021/07/01 12:22:46;;;;;;;;;;;;;;;25.90;59.50;96638.49;1776207;79;20097;-76
2021/07/01 12:25:27;;;;;;;;;;;;;;;24.92;60.32;96620.55;1785601;79;20491;-75
2021/07/01 12:28:12;;;;;;;;;;;;;;;23.71;60.02;96593.98;1791191;79;20127;-77
2021/07/01 12:31:04;;;;;;;;;;;;;;;22.40;66.32;96584.84;1797856;79;20269;-77
2021/07/01 12:33:53;;;;;;;;;;;;;;;21.87;64.56;96564.27;1792103;80;20456;-76
2021/07/01 12:36:30;;;;;;;;;;;;;;;21.68;66.47;96552.01;1789164;79;20209;-76
2021/07/01 12:39:12;;;;;;;;;;;;;;;21.72;66.68;96532.30;1793020;80;20138;-77
2021/07/01 12:41:52;;;;;;;;;;;;;;;21.93;67.91;96515.16;1791383;79;20130;-76
2021/07/01 12:44:25;;;;;;;;;;;;;;;22.24;66.09;96506.41;1795162;79;20155;-77
2021/07/01 12:46:55;;;;;;;;;;;;;;;22.60;65.65;96506.88;1791227;79;20131;-77
2021/07/01 12:49:27;;;;;;;;;;;;;;;22.92;64.25;96521.17;1791372;79;20139;-77
2021/07/01 12:52:10;;;;;;;;;;;;;;;23.22;64.57;96530.55;1792719;79;20141;-78
2021/07/01 12:54:40;;;;;;;;;;;;;;;23.31;66.55;96544.53;1793105;79;20122;-77
2021/07/01 12:57:09;;;;;;;;;;;;;;;23.34;62.57;96541.41;1795430;79;20179;-78
2021/07/01 12:59:47;;;;;;;;;;;;;;;23.38;62.30;96554.20;1795215;79;20431;-77
2021/07/01 13:02:25;;;;;;;;;;;;;;;23.45;61.22;96551.97;1789908;79;20135;-77
2021/07/01 13:04:57;;;;;;;;;;;;;;;23.64;61.17;96559.59;1795616;80;20241;-77